sensor_id;sensor_type;location;lat;lon;timestamp;P1;durP1;ratioP1;P2;durP2;ratioP2
29412;SDS011;16389;50.126;8.450;2023-04-23T00:01:11;5.65;;;5.15;;
29412;SDS011;16389;50.126;8.450;2023-04-23T00:03:38;6.15;;;5.30;;
29412;SDS011;16389;50.126;8.450;2023-04-23T00:06:07;6.35;;;4.95;;
29412;SDS011;16389;50.126;8.450;2023-04-23T00:08:35;6.30;;;5.80;;
29412;SDS011;16389;50.126;8.450;2023-04-23T00:11:06;5.78;;;5.28;;
29412;SDS011;16389;50.126;8.450;2023-04-23T00:13:32;6.05;;;5.45;;
29412;SDS011;16389;50.126;8.450;2023-04-23T00:15:58;6.50;;;5.90;;
29412;SDS011;16389;50.126;8.450;2023-04-23T00:18:24;6.20;;;5.60;;
29412;SDS011;16389;50.126;8.450;2023-04-23T00:20:50;6.15;;;5.57;;
29412;SDS011;16389;50.126;8.450;2023-04-23T00:23:16;7.93;;;5.90;;
29412;SDS011;16389;50.126;8.450;2023-04-23T00:25:42;7.45;;;6.75;;
29412;SDS011;16389;50.126;8.450;2023-04-23T00:28:08;5.97;;;5.38;;
29412;SDS011;16389;50.126;8.450;2023-04-23T00:30:33;7.07;;;6.38;;
29412;SDS011;16389;50.126;8.450;2023-04-23T00:32:59;7.65;;;5.72;;
29412;SDS011;16389;50.126;8.450;2023-04-23T00:35:25;7.57;;;6.50;;
29412;SDS011;16389;50.126;8.450;2023-04-23T00:37:50;7.72;;;7.03;;
29412;SDS011;16389;50.126;8.450;2023-04-23T00:40:16;7.70;;;7.07;;
29412;SDS011;16389;50.126;8.450;2023-04-23T00:42:42;14.75;;;6.80;;
29412;SDS011;16389;50.126;8.450;2023-04-23T00:45:09;7.25;;;6.50;;
29412;SDS011;16389;50.126;8.450;2023-04-23T00:47:36;9.35;;;6.20;;
29412;SDS011;16389;50.126;8.450;2023-04-23T00:50:02;8.20;;;7.40;;
29412;SDS011;16389;50.126;8.450;2023-04-23T00:52:28;6.35;;;5.85;;
29412;SDS011;16389;50.126;8.450;2023-04-23T00:54:54;7.22;;;6.68;;
29412;SDS011;16389;50.126;8.450;2023-04-23T00:57:20;7.20;;;6.60;;
29412;SDS011;16389;50.126;8.450;2023-04-23T00:59:47;7.70;;;6.90;;
29412;SDS011;16389;50.126;8.450;2023-04-23T01:02:13;7.25;;;6.65;;
29412;SDS011;16389;50.126;8.450;2023-04-23T01:04:39;10.00;;;6.65;;
29412;SDS011;16389;50.126;8.450;2023-04-23T01:07:08;8.18;;;7.10;;
29412;SDS011;16389;50.126;8.450;2023-04-23T01:09:35;8.38;;;7.60;;
29412;SDS011;16389;50.126;8.450;2023-04-23T01:12:01;7.82;;;7.13;;
29412;SDS011;16389;50.126;8.450;2023-04-23T01:14:30;7.47;;;6.82;;
29412;SDS011;16389;50.126;8.450;2023-04-23T01:16:55;9.93;;;7.53;;
29412;SDS011;16389;50.126;8.450;2023-04-23T01:19:22;8.43;;;7.57;;
29412;SDS011;16389;50.126;8.450;2023-04-23T01:21:47;8.82;;;8.02;;
29412;SDS011;16389;50.126;8.450;2023-04-23T01:24:15;8.27;;;7.47;;
29412;SDS011;16389;50.126;8.450;2023-04-23T01:26:40;8.77;;;8.07;;
29412;SDS011;16389;50.126;8.450;2023-04-23T01:29:06;10.15;;;8.48;;
29412;SDS011;16389;50.126;8.450;2023-04-23T01:31:33;8.93;;;8.13;;
29412;SDS011;16389;50.126;8.450;2023-04-23T01:34:00;8.40;;;7.70;;
29412;SDS011;16389;50.126;8.450;2023-04-23T01:36:27;9.20;;;8.43;;
29412;SDS011;16389;50.126;8.450;2023-04-23T01:38:53;9.18;;;8.27;;
29412;SDS011;16389;50.126;8.450;2023-04-23T01:41:18;9.27;;;8.38;;
29412;SDS011;16389;50.126;8.450;2023-04-23T01:43:44;8.50;;;7.80;;
29412;SDS011;16389;50.126;8.450;2023-04-23T01:46:10;9.02;;;8.23;;
29412;SDS011;16389;50.126;8.450;2023-04-23T01:48:36;9.77;;;8.80;;
29412;SDS011;16389;50.126;8.450;2023-04-23T01:51:02;9.18;;;8.32;;
29412;SDS011;16389;50.126;8.450;2023-04-23T01:53:28;10.65;;;9.65;;
29412;SDS011;16389;50.126;8.450;2023-04-23T01:55:54;9.70;;;8.88;;
29412;SDS011;16389;50.126;8.450;2023-04-23T01:58:20;11.95;;;9.10;;
29412;SDS011;16389;50.126;8.450;2023-04-23T02:00:47;12.10;;;10.95;;
29412;SDS011;16389;50.126;8.450;2023-04-23T02:03:13;9.85;;;8.98;;
29412;SDS011;16389;50.126;8.450;2023-04-23T02:05:39;9.18;;;8.27;;
29412;SDS011;16389;50.126;8.450;2023-04-23T02:08:06;12.68;;;10.93;;
29412;SDS011;16389;50.126;8.450;2023-04-23T02:10:32;11.95;;;10.75;;
29412;SDS011;16389;50.126;8.450;2023-04-23T02:12:58;10.52;;;9.52;;
29412;SDS011;16389;50.126;8.450;2023-04-23T02:15:23;11.32;;;10.23;;
29412;SDS011;16389;50.126;8.450;2023-04-23T02:17:49;12.23;;;11.02;;
29412;SDS011;16389;50.126;8.450;2023-04-23T02:20:16;11.95;;;10.88;;
29412;SDS011;16389;50.126;8.450;2023-04-23T02:22:43;13.05;;;11.50;;
29412;SDS011;16389;50.126;8.450;2023-04-23T02:25:09;10.23;;;9.32;;
29412;SDS011;16389;50.126;8.450;2023-04-23T02:27:35;10.98;;;9.88;;
29412;SDS011;16389;50.126;8.450;2023-04-23T02:30:01;13.80;;;9.85;;
29412;SDS011;16389;50.126;8.450;2023-04-23T02:32:27;11.40;;;10.40;;
29412;SDS011;16389;50.126;8.450;2023-04-23T02:34:52;12.98;;;10.60;;
29412;SDS011;16389;50.126;8.450;2023-04-23T02:37:19;12.02;;;10.10;;
29412;SDS011;16389;50.126;8.450;2023-04-23T02:39:45;12.82;;;9.80;;
29412;SDS011;16389;50.126;8.450;2023-04-23T02:42:10;14.02;;;10.57;;
29412;SDS011;16389;50.126;8.450;2023-04-23T02:44:37;17.92;;;10.60;;
29412;SDS011;16389;50.126;8.450;2023-04-23T02:47:02;10.60;;;9.70;;
29412;SDS011;16389;50.126;8.450;2023-04-23T02:49:28;11.70;;;10.65;;
29412;SDS011;16389;50.126;8.450;2023-04-23T02:51:54;11.93;;;10.73;;
29412;SDS011;16389;50.126;8.450;2023-04-23T02:54:20;11.65;;;10.45;;
29412;SDS011;16389;50.126;8.450;2023-04-23T02:56:45;12.60;;;11.50;;
29412;SDS011;16389;50.126;8.450;2023-04-23T02:59:11;12.15;;;11.02;;
29412;SDS011;16389;50.126;8.450;2023-04-23T03:01:37;11.50;;;10.50;;
29412;SDS011;16389;50.126;8.450;2023-04-23T03:04:02;11.57;;;10.38;;
29412;SDS011;16389;50.126;8.450;2023-04-23T03:06:28;11.93;;;10.93;;
29412;SDS011;16389;50.126;8.450;2023-04-23T03:08:55;12.43;;;11.27;;
29412;SDS011;16389;50.126;8.450;2023-04-23T03:11:21;11.95;;;10.75;;
29412;SDS011;16389;50.126;8.450;2023-04-23T03:13:47;16.73;;;10.27;;
29412;SDS011;16389;50.126;8.450;2023-04-23T03:16:13;12.85;;;11.55;;
29412;SDS011;16389;50.126;8.450;2023-04-23T03:18:39;15.48;;;13.98;;
29412;SDS011;16389;50.126;8.450;2023-04-23T03:21:05;14.68;;;13.18;;
29412;SDS011;16389;50.126;8.450;2023-04-23T03:23:30;15.05;;;13.63;;
29412;SDS011;16389;50.126;8.450;2023-04-23T03:25:56;15.95;;;14.45;;
29412;SDS011;16389;50.126;8.450;2023-04-23T03:28:22;14.80;;;13.40;;
29412;SDS011;16389;50.126;8.450;2023-04-23T03:30:48;16.65;;;13.70;;
29412;SDS011;16389;50.126;8.450;2023-04-23T03:33:13;15.70;;;13.90;;
29412;SDS011;16389;50.126;8.450;2023-04-23T03:35:39;14.10;;;12.68;;
29412;SDS011;16389;50.126;8.450;2023-04-23T03:38:05;13.60;;;12.38;;
29412;SDS011;16389;50.126;8.450;2023-04-23T03:40:30;14.38;;;12.50;;
29412;SDS011;16389;50.126;8.450;2023-04-23T03:42:56;13.75;;;12.45;;
29412;SDS011;16389;50.126;8.450;2023-04-23T03:45:22;13.13;;;11.95;;
29412;SDS011;16389;50.126;8.450;2023-04-23T03:47:47;13.75;;;12.45;;
29412;SDS011;16389;50.126;8.450;2023-04-23T03:50:13;14.20;;;12.77;;
29412;SDS011;16389;50.126;8.450;2023-04-23T03:52:39;12.68;;;11.38;;
29412;SDS011;16389;50.126;8.450;2023-04-23T03:55:05;12.10;;;10.93;;
29412;SDS011;16389;50.126;8.450;2023-04-23T03:57:31;14.82;;;10.85;;
29412;SDS011;16389;50.126;8.450;2023-04-23T03:59:57;12.15;;;10.98;;
29412;SDS011;16389;50.126;8.450;2023-04-23T04:02:23;13.30;;;12.20;;
29412;SDS011;16389;50.126;8.450;2023-04-23T04:04:49;13.55;;;11.50;;
29412;SDS011;16389;50.126;8.450;2023-04-23T04:07:15;13.93;;;11.57;;
29412;SDS011;16389;50.126;8.450;2023-04-23T04:09:42;11.55;;;10.52;;
29412;SDS011;16389;50.126;8.450;2023-04-23T04:12:07;12.25;;;11.20;;
29412;SDS011;16389;50.126;8.450;2023-04-23T04:14:33;12.23;;;11.23;;
29412;SDS011;16389;50.126;8.450;2023-04-23T04:16:59;12.50;;;11.30;;
29412;SDS011;16389;50.126;8.450;2023-04-23T04:19:24;11.73;;;10.70;;
29412;SDS011;16389;50.126;8.450;2023-04-23T04:21:50;12.27;;;10.70;;
29412;SDS011;16389;50.126;8.450;2023-04-23T04:24:16;11.40;;;10.10;;
29412;SDS011;16389;50.126;8.450;2023-04-23T04:26:42;11.43;;;10.43;;
29412;SDS011;16389;50.126;8.450;2023-04-23T04:29:09;12.07;;;10.95;;
29412;SDS011;16389;50.126;8.450;2023-04-23T04:31:35;11.23;;;10.23;;
29412;SDS011;16389;50.126;8.450;2023-04-23T04:34:01;13.65;;;11.45;;
29412;SDS011;16389;50.126;8.450;2023-04-23T04:36:27;11.20;;;10.07;;
29412;SDS011;16389;50.126;8.450;2023-04-23T04:38:53;12.60;;;11.25;;
29412;SDS011;16389;50.126;8.450;2023-04-23T04:41:23;12.70;;;11.50;;
29412;SDS011;16389;50.126;8.450;2023-04-23T04:43:52;12.15;;;10.98;;
29412;SDS011;16389;50.126;8.450;2023-04-23T04:46:22;12.27;;;11.02;;
29412;SDS011;16389;50.126;8.450;2023-04-23T04:48:50;11.32;;;10.27;;
29412;SDS011;16389;50.126;8.450;2023-04-23T04:51:15;12.48;;;11.18;;
29412;SDS011;16389;50.126;8.450;2023-04-23T04:53:41;11.63;;;10.52;;
29412;SDS011;16389;50.126;8.450;2023-04-23T04:56:07;13.20;;;11.00;;
29412;SDS011;16389;50.126;8.450;2023-04-23T04:58:33;11.00;;;10.00;;
29412;SDS011;16389;50.126;8.450;2023-04-23T05:00:59;11.95;;;10.73;;
29412;SDS011;16389;50.126;8.450;2023-04-23T05:03:25;12.82;;;11.65;;
29412;SDS011;16389;50.126;8.450;2023-04-23T05:05:51;12.18;;;11.07;;
29412;SDS011;16389;50.126;8.450;2023-04-23T05:08:20;12.18;;;11.07;;
29412;SDS011;16389;50.126;8.450;2023-04-23T05:10:46;10.82;;;9.82;;
29412;SDS011;16389;50.126;8.450;2023-04-23T05:13:14;11.77;;;10.25;;
29412;SDS011;16389;50.126;8.450;2023-04-23T05:15:40;11.60;;;10.50;;
29412;SDS011;16389;50.126;8.450;2023-04-23T05:18:05;10.68;;;9.63;;
29412;SDS011;16389;50.126;8.450;2023-04-23T05:20:33;11.50;;;10.35;;
29412;SDS011;16389;50.126;8.450;2023-04-23T05:22:59;12.48;;;10.00;;
29412;SDS011;16389;50.126;8.450;2023-04-23T05:25:26;10.45;;;9.52;;
29412;SDS011;16389;50.126;8.450;2023-04-23T05:27:52;10.10;;;9.20;;
29412;SDS011;16389;50.126;8.450;2023-04-23T05:30:17;10.88;;;9.88;;
29412;SDS011;16389;50.126;8.450;2023-04-23T05:32:43;10.15;;;9.10;;
29412;SDS011;16389;50.126;8.450;2023-04-23T05:35:09;9.75;;;8.85;;
29412;SDS011;16389;50.126;8.450;2023-04-23T05:37:35;9.15;;;8.35;;
29412;SDS011;16389;50.126;8.450;2023-04-23T05:40:00;9.13;;;8.23;;
29412;SDS011;16389;50.126;8.450;2023-04-23T05:42:26;8.57;;;7.78;;
29412;SDS011;16389;50.126;8.450;2023-04-23T05:44:52;9.07;;;8.25;;
29412;SDS011;16389;50.126;8.450;2023-04-23T05:47:18;9.13;;;8.25;;
29412;SDS011;16389;50.126;8.450;2023-04-23T05:49:43;9.23;;;8.43;;
29412;SDS011;16389;50.126;8.450;2023-04-23T05:52:09;7.68;;;6.97;;
29412;SDS011;16389;50.126;8.450;2023-04-23T05:54:35;8.02;;;7.40;;
29412;SDS011;16389;50.126;8.450;2023-04-23T05:57:01;8.38;;;7.68;;
29412;SDS011;16389;50.126;8.450;2023-04-23T05:59:27;7.35;;;6.72;;
29412;SDS011;16389;50.126;8.450;2023-04-23T06:01:53;8.35;;;7.65;;
29412;SDS011;16389;50.126;8.450;2023-04-23T06:04:19;7.18;;;6.60;;
29412;SDS011;16389;50.126;8.450;2023-04-23T06:06:44;7.82;;;7.00;;
29412;SDS011;16389;50.126;8.450;2023-04-23T06:09:10;8.07;;;7.38;;
29412;SDS011;16389;50.126;8.450;2023-04-23T06:11:36;6.97;;;6.38;;
29412;SDS011;16389;50.126;8.450;2023-04-23T06:14:02;7.28;;;6.68;;
29412;SDS011;16389;50.126;8.450;2023-04-23T06:16:28;7.18;;;6.40;;
29412;SDS011;16389;50.126;8.450;2023-04-23T06:18:54;7.05;;;6.28;;
29412;SDS011;16389;50.126;8.450;2023-04-23T06:21:22;7.28;;;5.75;;
29412;SDS011;16389;50.126;8.450;2023-04-23T06:23:48;6.10;;;5.60;;
29412;SDS011;16389;50.126;8.450;2023-04-23T06:26:14;6.82;;;6.22;;
29412;SDS011;16389;50.126;8.450;2023-04-23T06:28:41;6.47;;;5.88;;
29412;SDS011;16389;50.126;8.450;2023-04-23T06:31:07;6.18;;;5.43;;
29412;SDS011;16389;50.126;8.450;2023-04-23T06:33:33;5.50;;;5.00;;
29412;SDS011;16389;50.126;8.450;2023-04-23T06:36:01;5.55;;;5.05;;
29412;SDS011;16389;50.126;8.450;2023-04-23T06:38:27;6.32;;;5.72;;
29412;SDS011;16389;50.126;8.450;2023-04-23T06:40:52;6.95;;;6.40;;
29412;SDS011;16389;50.126;8.450;2023-04-23T06:43:18;6.13;;;5.47;;
29412;SDS011;16389;50.126;8.450;2023-04-23T06:45:44;6.18;;;5.57;;
29412;SDS011;16389;50.126;8.450;2023-04-23T06:48:09;5.95;;;5.45;;
29412;SDS011;16389;50.126;8.450;2023-04-23T06:50:35;9.10;;;6.88;;
29412;SDS011;16389;50.126;8.450;2023-04-23T06:53:01;6.85;;;6.15;;
29412;SDS011;16389;50.126;8.450;2023-04-23T06:55:26;6.90;;;6.20;;
29412;SDS011;16389;50.126;8.450;2023-04-23T06:57:53;5.80;;;5.30;;
29412;SDS011;16389;50.126;8.450;2023-04-23T07:00:21;6.60;;;6.00;;
29412;SDS011;16389;50.126;8.450;2023-04-23T07:02:47;6.45;;;5.85;;
29412;SDS011;16389;50.126;8.450;2023-04-23T07:05:13;7.80;;;7.10;;
29412;SDS011;16389;50.126;8.450;2023-04-23T07:07:39;6.28;;;5.68;;
29412;SDS011;16389;50.126;8.450;2023-04-23T07:10:07;6.78;;;6.18;;
29412;SDS011;16389;50.126;8.450;2023-04-23T07:12:34;7.20;;;6.55;;
29412;SDS011;16389;50.126;8.450;2023-04-23T07:15:00;7.07;;;6.45;;
29412;SDS011;16389;50.126;8.450;2023-04-23T07:17:26;5.85;;;5.40;;
29412;SDS011;16389;50.126;8.450;2023-04-23T07:19:52;6.38;;;5.85;;
29412;SDS011;16389;50.126;8.450;2023-04-23T07:22:17;5.53;;;5.03;;
29412;SDS011;16389;50.126;8.450;2023-04-23T07:24:43;5.60;;;5.10;;
29412;SDS011;16389;50.126;8.450;2023-04-23T07:27:08;6.13;;;5.55;;
29412;SDS011;16389;50.126;8.450;2023-04-23T07:29:34;5.90;;;4.78;;
29412;SDS011;16389;50.126;8.450;2023-04-23T07:32:00;5.43;;;5.03;;
29412;SDS011;16389;50.126;8.450;2023-04-23T07:34:25;5.93;;;5.43;;
29412;SDS011;16389;50.126;8.450;2023-04-23T07:36:51;4.65;;;4.25;;
29412;SDS011;16389;50.126;8.450;2023-04-23T07:39:17;5.38;;;4.97;;
29412;SDS011;16389;50.126;8.450;2023-04-23T07:41:42;5.00;;;4.60;;
29412;SDS011;16389;50.126;8.450;2023-04-23T07:44:08;5.30;;;4.90;;
29412;SDS011;16389;50.126;8.450;2023-04-23T07:46:34;7.22;;;5.90;;
29412;SDS011;16389;50.126;8.450;2023-04-23T07:49:00;5.93;;;5.32;;
29412;SDS011;16389;50.126;8.450;2023-04-23T07:51:25;4.70;;;4.30;;
29412;SDS011;16389;50.126;8.450;2023-04-23T07:53:54;5.75;;;5.25;;
29412;SDS011;16389;50.126;8.450;2023-04-23T07:56:21;5.28;;;4.63;;
29412;SDS011;16389;50.126;8.450;2023-04-23T07:58:48;5.30;;;4.90;;
29412;SDS011;16389;50.126;8.450;2023-04-23T08:01:14;4.97;;;4.57;;
29412;SDS011;16389;50.126;8.450;2023-04-23T08:03:40;5.45;;;4.95;;
29412;SDS011;16389;50.126;8.450;2023-04-23T08:06:05;4.90;;;4.40;;
29412;SDS011;16389;50.126;8.450;2023-04-23T08:08:31;5.40;;;4.53;;
29412;SDS011;16389;50.126;8.450;2023-04-23T08:10:57;9.30;;;5.20;;
29412;SDS011;16389;50.126;8.450;2023-04-23T08:13:23;5.57;;;4.85;;
29412;SDS011;16389;50.126;8.450;2023-04-23T08:15:48;6.38;;;5.00;;
29412;SDS011;16389;50.126;8.450;2023-04-23T08:18:15;6.68;;;4.43;;
29412;SDS011;16389;50.126;8.450;2023-04-23T08:20:41;5.43;;;4.70;;
29412;SDS011;16389;50.126;8.450;2023-04-23T08:23:07;5.50;;;4.57;;
29412;SDS011;16389;50.126;8.450;2023-04-23T08:25:33;5.05;;;4.50;;
29412;SDS011;16389;50.126;8.450;2023-04-23T08:27:58;5.28;;;4.78;;
29412;SDS011;16389;50.126;8.450;2023-04-23T08:30:25;5.30;;;4.68;;
29412;SDS011;16389;50.126;8.450;2023-04-23T08:32:51;5.47;;;4.97;;
29412;SDS011;16389;50.126;8.450;2023-04-23T08:35:20;5.20;;;4.70;;
29412;SDS011;16389;50.126;8.450;2023-04-23T08:37:46;4.85;;;4.40;;
29412;SDS011;16389;50.126;8.450;2023-04-23T08:40:12;5.60;;;4.22;;
29412;SDS011;16389;50.126;8.450;2023-04-23T08:42:48;4.80;;;4.40;;
29412;SDS011;16389;50.126;8.450;2023-04-23T08:45:16;4.93;;;3.90;;
29412;SDS011;16389;50.126;8.450;2023-04-23T08:47:43;4.53;;;4.13;;
29412;SDS011;16389;50.126;8.450;2023-04-23T08:50:09;4.15;;;3.75;;
29412;SDS011;16389;50.126;8.450;2023-04-23T08:52:51;4.75;;;4.35;;
29412;SDS011;16389;50.126;8.450;2023-04-23T08:55:18;4.75;;;4.25;;
29412;SDS011;16389;50.126;8.450;2023-04-23T08:57:45;4.80;;;4.40;;
29412;SDS011;16389;50.126;8.450;2023-04-23T09:00:11;4.05;;;3.65;;
29412;SDS011;16389;50.126;8.450;2023-04-23T09:02:39;5.90;;;4.07;;
29412;SDS011;16389;50.126;8.450;2023-04-23T09:05:06;4.38;;;3.97;;
29412;SDS011;16389;50.126;8.450;2023-04-23T09:07:33;4.55;;;3.55;;
29412;SDS011;16389;50.126;8.450;2023-04-23T09:10:00;4.28;;;3.88;;
29412;SDS011;16389;50.126;8.450;2023-04-23T09:12:30;4.07;;;3.28;;
29412;SDS011;16389;50.126;8.450;2023-04-23T09:14:56;3.75;;;3.45;;
29412;SDS011;16389;50.126;8.450;2023-04-23T09:17:22;3.30;;;3.00;;
29412;SDS011;16389;50.126;8.450;2023-04-23T09:19:52;3.53;;;3.20;;
29412;SDS011;16389;50.126;8.450;2023-04-23T09:23:04;3.47;;;3.17;;
29412;SDS011;16389;50.126;8.450;2023-04-23T09:25:12;3.25;;;2.88;;
29412;SDS011;16389;50.126;8.450;2023-04-23T09:27:40;4.05;;;3.00;;
29412;SDS011;16389;50.126;8.450;2023-04-23T09:30:06;9.82;;;2.85;;
29412;SDS011;16389;50.126;8.450;2023-04-23T09:32:35;4.35;;;3.13;;
29412;SDS011;16389;50.126;8.450;2023-04-23T09:35:02;3.20;;;2.67;;
29412;SDS011;16389;50.126;8.450;2023-04-23T09:37:32;3.00;;;2.70;;
29412;SDS011;16389;50.126;8.450;2023-04-23T09:39:59;3.95;;;3.05;;
29412;SDS011;16389;50.126;8.450;2023-04-23T09:42:26;3.78;;;3.42;;
29412;SDS011;16389;50.126;8.450;2023-04-23T09:44:56;3.35;;;3.05;;
29412;SDS011;16389;50.126;8.450;2023-04-23T09:47:30;4.68;;;3.28;;
29412;SDS011;16389;50.126;8.450;2023-04-23T09:49:58;4.13;;;3.17;;
29412;SDS011;16389;50.126;8.450;2023-04-23T09:52:23;2.90;;;2.05;;
29412;SDS011;16389;50.126;8.450;2023-04-23T09:54:49;1.80;;;1.67;;
29412;SDS011;16389;50.126;8.450;2023-04-23T09:57:15;2.65;;;2.28;;
29412;SDS011;16389;50.126;8.450;2023-04-23T09:59:41;2.72;;;2.17;;
29412;SDS011;16389;50.126;8.450;2023-04-23T10:02:07;2.47;;;2.28;;
29412;SDS011;16389;50.126;8.450;2023-04-23T10:04:34;2.33;;;2.10;;
29412;SDS011;16389;50.126;8.450;2023-04-23T10:07:00;2.05;;;1.85;;
29412;SDS011;16389;50.126;8.450;2023-04-23T10:09:29;1.92;;;1.77;;
29412;SDS011;16389;50.126;8.450;2023-04-23T10:11:55;1.63;;;1.40;;
29412;SDS011;16389;50.126;8.450;2023-04-23T10:14:23;2.08;;;1.40;;
29412;SDS011;16389;50.126;8.450;2023-04-23T10:16:50;2.30;;;1.50;;
29412;SDS011;16389;50.126;8.450;2023-04-23T10:19:17;1.92;;;1.38;;
29412;SDS011;16389;50.126;8.450;2023-04-23T10:21:54;1.67;;;1.17;;
29412;SDS011;16389;50.126;8.450;2023-04-23T10:24:32;1.65;;;1.30;;
29412;SDS011;16389;50.126;8.450;2023-04-23T10:27:00;1.48;;;1.38;;
29412;SDS011;16389;50.126;8.450;2023-04-23T10:29:29;1.80;;;1.40;;
29412;SDS011;16389;50.126;8.450;2023-04-23T10:31:59;1.45;;;1.35;;
29412;SDS011;16389;50.126;8.450;2023-04-23T10:34:27;1.50;;;1.35;;
29412;SDS011;16389;50.126;8.450;2023-04-23T10:36:53;1.88;;;1.20;;
29412;SDS011;16389;50.126;8.450;2023-04-23T10:39:21;1.25;;;1.10;;
29412;SDS011;16389;50.126;8.450;2023-04-23T10:41:48;2.55;;;1.40;;
29412;SDS011;16389;50.126;8.450;2023-04-23T10:44:16;2.63;;;1.35;;
29412;SDS011;16389;50.126;8.450;2023-04-23T10:46:54;2.03;;;1.30;;
29412;SDS011;16389;50.126;8.450;2023-04-23T10:49:22;1.63;;;1.52;;
29412;SDS011;16389;50.126;8.450;2023-04-23T10:52:12;1.95;;;1.50;;
29412;SDS011;16389;50.126;8.450;2023-04-23T10:54:42;3.10;;;1.90;;
29412;SDS011;16389;50.126;8.450;2023-04-23T10:57:13;1.80;;;1.40;;
29412;SDS011;16389;50.126;8.450;2023-04-23T10:59:59;2.10;;;1.60;;
29412;SDS011;16389;50.126;8.450;2023-04-23T11:02:26;1.90;;;1.27;;
29412;SDS011;16389;50.126;8.450;2023-04-23T11:05:08;1.50;;;1.40;;
29412;SDS011;16389;50.126;8.450;2023-04-23T11:07:34;4.40;;;1.90;;
29412;SDS011;16389;50.126;8.450;2023-04-23T11:10:12;1.70;;;1.60;;
29412;SDS011;16389;50.126;8.450;2023-04-23T11:12:39;7.13;;;1.67;;
29412;SDS011;16389;50.126;8.450;2023-04-23T11:15:09;2.05;;;1.85;;
29412;SDS011;16389;50.126;8.450;2023-04-23T11:25:01;1.23;;;1.00;;
29412;SDS011;16389;50.126;8.450;2023-04-23T11:27:28;1.35;;;1.20;;
29412;SDS011;16389;50.126;8.450;2023-04-23T11:29:56;1.73;;;1.05;;
29412;SDS011;16389;50.126;8.450;2023-04-23T11:32:22;1.83;;;1.42;;
29412;SDS011;16389;50.126;8.450;2023-04-23T11:34:48;3.75;;;1.83;;
29412;SDS011;16389;50.126;8.450;2023-04-23T11:37:15;2.25;;;2.03;;
29412;SDS011;16389;50.126;8.450;2023-04-23T11:39:42;1.40;;;1.30;;
29412;SDS011;16389;50.126;8.450;2023-04-23T11:42:11;2.42;;;1.50;;
29412;SDS011;16389;50.126;8.450;2023-04-23T11:44:38;3.58;;;2.55;;
29412;SDS011;16389;50.126;8.450;2023-04-23T11:47:06;2.38;;;1.95;;
29412;SDS011;16389;50.126;8.450;2023-04-23T11:49:32;1.65;;;1.45;;
29412;SDS011;16389;50.126;8.450;2023-04-23T11:51:58;1.92;;;1.73;;
29412;SDS011;16389;50.126;8.450;2023-04-23T11:54:26;2.25;;;1.88;;
29412;SDS011;16389;50.126;8.450;2023-04-23T11:56:53;1.83;;;1.73;;
29412;SDS011;16389;50.126;8.450;2023-04-23T11:59:22;1.60;;;1.50;;
29412;SDS011;16389;50.126;8.450;2023-04-23T12:01:49;1.83;;;1.70;;
29412;SDS011;16389;50.126;8.450;2023-04-23T12:04:26;2.38;;;1.48;;
29412;SDS011;16389;50.126;8.450;2023-04-23T12:06:56;1.88;;;1.73;;
29412;SDS011;16389;50.126;8.450;2023-04-23T12:09:23;2.20;;;1.70;;
29412;SDS011;16389;50.126;8.450;2023-04-23T12:11:51;2.03;;;1.92;;
29412;SDS011;16389;50.126;8.450;2023-04-23T12:14:23;2.55;;;2.08;;
29412;SDS011;16389;50.126;8.450;2023-04-23T12:16:53;2.00;;;1.80;;
29412;SDS011;16389;50.126;8.450;2023-04-23T12:19:20;2.30;;;2.10;;
29412;SDS011;16389;50.126;8.450;2023-04-23T12:21:52;1.80;;;1.70;;
29412;SDS011;16389;50.126;8.450;2023-04-23T12:24:23;1.77;;;1.67;;
29412;SDS011;16389;50.126;8.450;2023-04-23T12:26:51;1.90;;;1.80;;
29412;SDS011;16389;50.126;8.450;2023-04-23T12:29:22;1.98;;;1.73;;
29412;SDS011;16389;50.126;8.450;2023-04-23T12:31:52;2.25;;;1.83;;
29412;SDS011;16389;50.126;8.450;2023-04-23T12:34:24;2.05;;;1.80;;
29412;SDS011;16389;50.126;8.450;2023-04-23T12:36:52;2.85;;;1.40;;
29412;SDS011;16389;50.126;8.450;2023-04-23T12:39:28;1.70;;;1.60;;
29412;SDS011;16389;50.126;8.450;2023-04-23T12:44:34;1.88;;;1.30;;
29412;SDS011;16389;50.126;8.450;2023-04-23T12:47:04;1.60;;;1.45;;
29412;SDS011;16389;50.126;8.450;2023-04-23T12:49:32;1.50;;;1.40;;
29412;SDS011;16389;50.126;8.450;2023-04-23T12:52:02;1.45;;;1.35;;
29412;SDS011;16389;50.126;8.450;2023-04-23T12:54:33;1.65;;;1.40;;
29412;SDS011;16389;50.126;8.450;2023-04-23T12:57:03;1.63;;;1.33;;
29412;SDS011;16389;50.126;8.450;2023-04-23T12:59:32;2.13;;;1.30;;
29412;SDS011;16389;50.126;8.450;2023-04-23T13:01:58;1.67;;;0.95;;
29412;SDS011;16389;50.126;8.450;2023-04-23T13:04:28;1.25;;;1.05;;
29412;SDS011;16389;50.126;8.450;2023-04-23T13:06:55;1.30;;;1.10;;
29412;SDS011;16389;50.126;8.450;2023-04-23T13:09:21;1.30;;;1.20;;
29412;SDS011;16389;50.126;8.450;2023-04-23T13:11:48;1.00;;;1.00;;
29412;SDS011;16389;50.126;8.450;2023-04-23T13:14:14;1.77;;;1.63;;
29412;SDS011;16389;50.126;8.450;2023-04-23T13:16:40;1.00;;;1.00;;
29412;SDS011;16389;50.126;8.450;2023-04-23T13:19:07;0.90;;;0.90;;
29412;SDS011;16389;50.126;8.450;2023-04-23T13:21:33;0.90;;;0.90;;
29412;SDS011;16389;50.126;8.450;2023-04-23T13:23:58;1.60;;;0.90;;
29412;SDS011;16389;50.126;8.450;2023-04-23T13:26:25;1.13;;;1.02;;
29412;SDS011;16389;50.126;8.450;2023-04-23T13:28:54;1.50;;;1.10;;
29412;SDS011;16389;50.126;8.450;2023-04-23T13:31:20;1.40;;;1.10;;
29412;SDS011;16389;50.126;8.450;2023-04-23T13:33:45;1.23;;;0.93;;
29412;SDS011;16389;50.126;8.450;2023-04-23T13:36:11;0.90;;;0.90;;
29412;SDS011;16389;50.126;8.450;2023-04-23T13:38:36;1.40;;;0.80;;
29412;SDS011;16389;50.126;8.450;2023-04-23T13:41:03;0.95;;;0.80;;
29412;SDS011;16389;50.126;8.450;2023-04-23T13:43:28;0.70;;;0.70;;
29412;SDS011;16389;50.126;8.450;2023-04-23T13:45:54;0.98;;;0.90;;
29412;SDS011;16389;50.126;8.450;2023-04-23T13:48:21;0.80;;;0.80;;
29412;SDS011;16389;50.126;8.450;2023-04-23T13:51:00;1.05;;;0.80;;
29412;SDS011;16389;50.126;8.450;2023-04-23T13:53:26;0.80;;;0.80;;
29412;SDS011;16389;50.126;8.450;2023-04-23T13:55:54;0.93;;;0.90;;
29412;SDS011;16389;50.126;8.450;2023-04-23T13:58:20;0.70;;;0.70;;
29412;SDS011;16389;50.126;8.450;2023-04-23T14:00:47;0.85;;;0.73;;
29412;SDS011;16389;50.126;8.450;2023-04-23T14:03:13;0.80;;;0.80;;
29412;SDS011;16389;50.126;8.450;2023-04-23T14:05:40;0.80;;;0.77;;
29412;SDS011;16389;50.126;8.450;2023-04-23T14:08:06;0.80;;;0.80;;
29412;SDS011;16389;50.126;8.450;2023-04-23T14:10:32;3.42;;;0.80;;
29412;SDS011;16389;50.126;8.450;2023-04-23T14:12:58;0.80;;;0.80;;
29412;SDS011;16389;50.126;8.450;2023-04-23T14:15:24;1.58;;;0.80;;
29412;SDS011;16389;50.126;8.450;2023-04-23T14:17:50;1.02;;;0.70;;
29412;SDS011;16389;50.126;8.450;2023-04-23T14:20:16;0.70;;;0.70;;
29412;SDS011;16389;50.126;8.450;2023-04-23T14:22:47;0.70;;;0.70;;
29412;SDS011;16389;50.126;8.450;2023-04-23T14:25:18;0.70;;;0.70;;
29412;SDS011;16389;50.126;8.450;2023-04-23T14:27:49;0.60;;;0.60;;
29412;SDS011;16389;50.126;8.450;2023-04-23T14:30:19;0.73;;;0.73;;
29412;SDS011;16389;50.126;8.450;2023-04-23T14:32:46;1.00;;;0.75;;
29412;SDS011;16389;50.126;8.450;2023-04-23T14:35:15;2.00;;;0.95;;
29412;SDS011;16389;50.126;8.450;2023-04-23T14:37:41;1.50;;;0.70;;
29412;SDS011;16389;50.126;8.450;2023-04-23T14:40:09;0.73;;;0.73;;
29412;SDS011;16389;50.126;8.450;2023-04-23T14:42:38;0.75;;;0.75;;
29412;SDS011;16389;50.126;8.450;2023-04-23T14:45:04;1.20;;;0.80;;
29412;SDS011;16389;50.126;8.450;2023-04-23T14:47:30;1.27;;;0.60;;
29412;SDS011;16389;50.126;8.450;2023-04-23T14:49:55;0.70;;;0.70;;